TAF Text Data
IDs:
Format:
Raw Decoded Include METAR

Data at: 0229 UTC 16 Jan 2019

KJAX 160156Z 33004KT 10SM OVC035 09/05 A3024 RMK AO2 SLP241 T00940050

KJAX 152346Z 1600/1624 35003KT P6SM BKN035
  FM161500 32005KT P6SM FEW030 SCT250


KCRG 160153Z 35006KT 10SM OVC034 11/04 A3024 RMK AO2 SLP241 T01060044

KCRG 152346Z 1600/1624 35004KT P6SM BKN035
  FM161500 32005KT P6SM FEW030 SCT250


KVQQ 160150Z 33004KT 10SM OVC033 10/05 A3025

KVQQ 152346Z 1600/1624 35004KT P6SM BKN035
  FM161500 32005KT P6SM FEW030 SCT250


KGNV 160153Z 00000KT 10SM CLR 04/03 A3028 RMK AO2 SLP253 T00390028

KGNV 160141Z 1602/1624 34003KT P6SM SCT030
  FM161500 32005KT P6SM FEW030 SCT250


KSGJ 160156Z AUTO 32005KT 10SM OVC033 11/05 A3025 RMK AO2 SLP242 T01060050

KSGJ 152346Z 1600/1624 36007KT P6SM OVC035
  FM161500 35007KT P6SM FEW030 SCT250


KSSI 160153Z AUTO 00000KT 10SM OVC039 10/04 A3025 RMK AO2 SLP243 T01000044

KSSI 152346Z 1600/1624 35004KT P6SM OVC035
  FM161500 30005KT P6SM SCT030 SCT250